Terminal Aerodrome Forecast
Issued by NWS Quad Cities IA IL

Home | Current Version | Previous Version | Text Only | Print | Product List | Glossary On
Versions: 1 2 3 4 5 6 7 8 9 10 11 12 13 14 15 16 17 18 19 20 21 22 23 24 25 26 27 28 29 30 31 32 33
537
FTUS43 KDVN 260657 AAA
TAFDBQ
TAF AMD
KDBQ 260657Z 2607/2706 05012KT 1SM -DZ BR VCSH OVC002
      TEMPO 2607/2611 1/4SM FG
     FM261100 06008KT 1/2SM -DZ FG OVC002
     FM261500 02005KT 2SM BR OVC005
     FM261800 29007KT 5SM BR OVC009=

USA.gov is the U.S. government's official web portal to all federal, state and local government web resources and services.